Time;durP1;ratioP1;P1;durP2;ratioP2;P2;SDS_P1;SDS_P2;PMS_P1;PMS_P2;Temp;Humidity;BMP_temperature;BMP_pressure;BME280_temperature;BME280_humidity;BME280_pressure;Samples;Min_cycle;Max_cycle;Signal;HPM_P1;HPM_P2
2022/05/18 00:00:50;;;;;;;;;;;17.00;99.90;;;;;;4971933;29;20055;-78
2022/05/18 00:03:19;;;;;;;11.60;6.13;;;17.00;99.90;;;;;;4969529;28;19922;-77
2022/05/18 00:05:47;;;;;;;14.15;6.15;;;17.00;99.90;;;;;;4967789;28;20047;-77
2022/05/18 00:08:13;;;;;;;13.30;5.82;;;17.00;99.90;;;;;;4983163;28;20105;-77
2022/05/18 00:10:42;;;;;;;12.88;5.93;;;16.90;99.90;;;;;;4966585;29;20043;-74
2022/05/18 00:13:09;;;;;;;12.75;5.78;;;16.90;99.90;;;;;;4967928;29;20171;-78
2022/05/18 00:15:35;;;;;;;13.80;5.93;;;16.90;99.90;;;;;;4971003;29;20067;-77
2022/05/18 00:18:01;;;;;;;15.18;5.80;;;17.00;99.90;;;;;;4972208;29;20082;-77
2022/05/18 00:20:27;;;;;;;12.33;5.47;;;17.00;99.90;;;;;;4972000;28;20047;-77
2022/05/18 00:23:04;;;;;;;14.23;6.50;;;16.90;99.90;;;;;;4969447;29;20062;-77
2022/05/18 00:25:36;;;;;;;14.45;6.10;;;16.90;99.90;;;;;;4967264;29;20044;-77
2022/05/18 00:28:03;;;;;;;13.55;5.72;;;17.00;99.90;;;;;;4970567;29;20047;-77
2022/05/18 00:30:30;;;;;;;13.20;5.85;;;17.00;99.90;;;;;;4968118;28;20055;-78
2022/05/18 00:32:56;;;;;;;;;;;16.90;99.90;;;;;;4964449;28;20399;-78
2022/05/18 00:35:25;;;;;;;12.20;5.22;;;16.80;99.90;;;;;;4963268;29;20363;-78
2022/05/18 00:37:51;;;;;;;12.48;5.72;;;16.80;99.90;;;;;;4963266;29;20109;-79
2022/05/18 00:40:18;;;;;;;11.25;5.72;;;16.70;99.90;;;;;;4963687;29;20106;-77
2022/05/18 00:42:44;;;;;;;14.65;6.38;;;16.70;99.90;;;;;;4981804;28;20106;-73
2022/05/18 00:45:10;;;;;;;13.57;5.88;;;16.70;99.90;;;;;;4962072;28;20361;-77
2022/05/18 00:47:36;;;;;;;10.53;5.67;;;16.60;99.90;;;;;;4963721;29;20083;-77
2022/05/18 00:50:10;;;;;;;15.38;6.03;;;16.60;99.90;;;;;;4963894;29;20070;-77
2022/05/18 00:52:41;;;;;;;11.63;5.70;;;16.60;99.90;;;;;;4947953;29;20062;-77
2022/05/18 00:55:10;;;;;;;14.40;6.47;;;16.60;99.90;;;;;;4965641;28;20047;-79
2022/05/18 00:57:45;;;;;;;15.57;6.60;;;16.50;99.90;;;;;;4963764;28;20051;-78
2022/05/18 01:00:15;;;;;;;13.05;5.45;;;16.50;99.90;;;;;;4960249;29;20083;-76
2022/05/18 01:02:46;;;;;;;12.95;5.75;;;16.50;99.90;;;;;;4959453;29;20047;-77
2022/05/18 01:05:17;;;;;;;14.15;6.03;;;16.40;99.90;;;;;;4960414;29;20094;-78
2022/05/18 01:07:50;;;;;;;10.38;5.68;;;16.30;99.90;;;;;;4960922;29;20050;-76
2022/05/18 01:10:15;;;;;;;13.23;6.40;;;16.40;99.90;;;;;;4959162;28;20157;-77
2022/05/18 01:12:41;;;;;;;14.70;5.97;;;16.40;99.90;;;;;;4957351;29;20516;-77
2022/05/18 01:15:14;;;;;;;13.35;6.20;;;16.40;99.90;;;;;;4956752;28;20138;-79
2022/05/18 01:17:42;;;;;;;14.85;6.25;;;16.40;99.90;;;;;;4938885;29;20059;-77
2022/05/18 01:20:12;;;;;;;12.45;5.57;;;16.40;99.90;;;;;;4956676;28;20126;-77
2022/05/18 01:23:15;;;;;;;12.32;6.00;;;16.30;99.90;;;;;;4956678;29;20113;-78
2022/05/18 01:25:56;;;;;;;12.35;6.20;;;16.30;99.90;;;;;;4960362;29;20051;-76
2022/05/18 01:28:25;;;;;;;10.38;5.95;;;16.30;99.90;;;;;;4956389;28;20190;-76
2022/05/18 01:30:51;;;;;;;13.43;5.75;;;16.30;99.90;;;;;;4939471;29;20049;-75
2022/05/18 01:33:19;;;;;;;13.85;6.57;;;16.30;99.90;;;;;;4955177;29;20436;-76
2022/05/18 01:35:47;;;;;;;14.25;6.13;;;16.20;99.90;;;;;;4955029;29;20062;-77
2022/05/18 01:38:13;;;;;;;14.73;6.40;;;16.10;99.90;;;;;;4955947;29;20208;-77
2022/05/18 01:40:42;;;;;;;12.00;6.57;;;16.20;99.90;;;;;;4955312;29;20140;-77
2022/05/18 01:43:15;;;;;;;11.98;6.70;;;16.10;99.90;;;;;;4958405;29;20109;-78
2022/05/18 01:45:41;;;;;;;11.73;6.05;;;16.00;99.90;;;;;;4955166;29;20054;-78
2022/05/18 01:48:14;;;;;;;16.42;7.07;;;16.00;99.90;;;;;;4956204;28;20047;-78
2022/05/18 01:50:41;;;;;;;15.07;6.00;;;16.00;99.90;;;;;;4957008;29;20065;-78
2022/05/18 01:53:07;;;;;;;12.75;5.97;;;16.00;99.90;;;;;;4954611;29;20086;-78
2022/05/18 01:55:33;;;;;;;14.80;6.53;;;16.00;99.90;;;;;;4955399;29;20192;-79
2022/05/18 01:57:59;;;;;;;16.13;6.40;;;15.90;99.90;;;;;;4953978;29;20043;-77
2022/05/18 02:00:26;;;;;;;17.20;6.65;;;15.90;99.90;;;;;;4954420;29;20450;-77
2022/05/18 02:02:52;;;;;;;16.17;6.13;;;15.90;99.90;;;;;;4954737;28;20055;-74
2022/05/18 02:05:18;;;;;;;15.50;6.72;;;15.90;99.90;;;;;;4954816;29;20062;-78
2022/05/18 02:07:43;;;;;;;11.95;6.57;;;15.80;99.90;;;;;;4953587;28;20093;-78
2022/05/18 02:10:11;;;;;;;13.93;6.85;;;15.80;99.90;;;;;;4952894;28;20047;-79
2022/05/18 02:12:36;;;;;;;;;;;15.70;99.90;;;;;;4970258;28;20126;-76
2022/05/18 02:15:03;;;;;;;16.53;6.70;;;15.70;99.90;;;;;;4954364;28;20410;-77
2022/05/18 02:17:30;;;;;;;15.73;7.45;;;15.60;99.90;;;;;;4954137;29;20055;-77
2022/05/18 02:19:57;;;;;;;14.77;7.10;;;15.50;99.90;;;;;;4954436;29;20055;-77
2022/05/18 02:22:24;;;;;;;16.40;7.10;;;15.50;99.90;;;;;;4955278;29;20439;-77
2022/05/18 02:24:50;;;;;;;;;;;15.40;99.90;;;;;;4955891;28;20051;-79
2022/05/18 02:27:16;;;;;;;13.70;7.07;;;15.30;99.90;;;;;;4956107;28;19930;-78
2022/05/18 02:29:42;;;;;;;16.58;7.07;;;15.30;99.90;;;;;;4938726;29;20051;-77
2022/05/18 02:32:09;;;;;;;17.42;7.13;;;15.20;99.90;;;;;;4938638;29;20047;-77
2022/05/18 02:34:35;;;;;;;17.23;7.63;;;15.20;99.90;;;;;;4971100;28;20054;-77
2022/05/18 02:37:02;;;;;;;13.13;7.10;;;15.10;99.90;;;;;;4955038;29;20516;-77
2022/05/18 02:39:27;;;;;;;13.05;7.30;;;15.10;99.90;;;;;;4954787;28;20138;-78
2022/05/18 02:41:53;;;;;;;17.02;7.43;;;15.10;99.90;;;;;;4955081;29;20106;-76
2022/05/18 02:44:19;;;;;;;15.48;7.88;;;15.10;99.90;;;;;;4955341;28;20588;-76
2022/05/18 02:46:45;;;;;;;16.48;7.45;;;15.00;99.90;;;;;;4954162;29;20105;-77
2022/05/18 02:49:11;;;;;;;17.77;9.07;;;15.00;99.90;;;;;;4953649;29;20051;-77
2022/05/18 02:51:40;;;;;;;15.10;7.38;;;15.00;99.90;;;;;;4955287;29;20058;-77
2022/05/18 02:56:05;;;;;;;14.52;8.02;;;14.90;99.90;;;;;;4954290;29;20086;-77
2022/05/18 02:56:53;;;;;;;;;;;14.90;99.90;;;;;;4955487;28;20142;-78
2022/05/18 02:59:20;;;;;;;13.75;6.82;;;14.80;99.90;;;;;;4955562;28;19962;-79
2022/05/18 03:01:47;;;;;;;16.05;7.68;;;14.80;99.90;;;;;;4971029;28;20051;-79
2022/05/18 03:04:14;;;;;;;20.30;8.77;;;14.70;99.90;;;;;;4938840;29;20054;-77
2022/05/18 03:06:40;;;;;;;;;;;14.70;99.90;;;;;;4954801;29;20062;-78
2022/05/18 03:09:06;;;;;;;20.03;8.40;;;14.70;99.90;;;;;;4955085;28;20312;-74
2022/05/18 03:11:33;;;;;;;14.18;7.78;;;14.70;99.90;;;;;;4938835;29;20345;-78
2022/05/18 03:13:58;;;;;;;;;;;14.60;99.90;;;;;;4954966;29;20393;-75
2022/05/18 03:16:27;;;;;;;16.90;7.70;;;14.60;99.90;;;;;;4954241;29;19929;-80
2022/05/18 03:18:53;;;;;;;13.93;8.15;;;14.50;99.90;;;;;;4954064;29;20054;-79
2022/05/18 03:24:03;;;;;;;15.02;8.30;;;14.50;99.90;;;;;;4957468;29;20106;-79
2022/05/18 03:26:29;;;;;;;18.45;9.10;;;14.50;99.90;;;;;;4958879;28;20047;-79
2022/05/18 03:28:56;;;;;;;16.15;8.35;;;14.40;99.90;;;;;;4959103;28;20070;-79
2022/05/18 03:31:24;;;;;;;13.95;7.93;;;14.40;99.90;;;;;;4973452;28;20102;-78
2022/05/18 03:33:50;;;;;;;21.00;8.25;;;14.30;99.90;;;;;;4958125;29;20065;-79
2022/05/18 03:36:18;;;;;;;17.70;8.18;;;14.30;99.90;;;;;;4957914;28;20195;-78
2022/05/18 03:38:45;;;;;;;15.60;8.40;;;14.30;99.90;;;;;;4957526;29;20051;-78
2022/05/18 03:41:12;;;;;;;18.23;8.80;;;14.20;99.90;;;;;;4957289;28;20050;-78
2022/05/18 03:43:38;;;;;;;22.13;8.93;;;14.20;99.90;;;;;;4956702;28;20055;-78
2022/05/18 03:46:05;;;;;;;19.52;9.30;;;14.20;99.90;;;;;;4957687;29;20387;-75
2022/05/18 03:48:32;;;;;;;15.50;8.70;;;14.20;99.90;;;;;;4956194;29;20051;-78
2022/05/18 03:50:58;;;;;;;;;;;14.30;99.90;;;;;;4972336;28;20043;-78
2022/05/18 03:53:25;;;;;;;17.17;8.38;;;14.30;99.90;;;;;;4957232;28;19918;-77
2022/05/18 03:55:51;;;;;;;19.08;8.77;;;14.30;99.90;;;;;;4973035;28;20082;-79
2022/05/18 03:58:17;;;;;;;24.00;8.68;;;14.30;99.90;;;;;;4958126;29;20475;-78
2022/05/18 04:00:45;;;;;;;16.75;9.20;;;14.30;99.90;;;;;;4956637;29;20062;-79
2022/05/18 04:03:12;;;;;;;15.40;8.68;;;14.30;99.90;;;;;;4957579;29;20050;-78
2022/05/18 04:05:38;;;;;;;19.05;9.32;;;14.20;99.90;;;;;;4957411;29;20044;-77
2022/05/18 04:08:09;;;;;;;18.40;9.75;;;14.20;99.90;;;;;;4961688;29;20043;-75
2022/05/18 04:10:36;;;;;;;18.42;8.82;;;14.30;99.90;;;;;;4967919;28;20098;-78
2022/05/18 04:13:02;;;;;;;16.20;9.43;;;14.40;99.90;;;;;;4967565;29;20514;-78
2022/05/18 04:15:28;;;;;;;18.53;9.80;;;14.50;99.90;;;;;;4965366;28;20474;-76
2022/05/18 04:17:55;;;;;;;16.17;9.55;;;14.60;99.90;;;;;;4964229;29;20290;-77
2022/05/18 04:20:22;;;;;;;18.63;9.00;;;14.60;99.90;;;;;;4961038;28;20062;-80
2022/05/18 04:22:50;;;;;;;16.85;9.57;;;14.80;99.90;;;;;;4959168;29;20130;-77
2022/05/18 04:25:18;;;;;;;17.95;9.15;;;14.80;99.90;;;;;;4957867;29;20054;-78
2022/05/18 04:27:47;;;;;;;20.25;9.77;;;14.90;99.90;;;;;;4961097;28;20083;-77
2022/05/18 04:30:17;;;;;;;17.80;9.73;;;15.00;99.90;;;;;;4965495;28;20078;-78
2022/05/18 04:32:43;;;;;;;15.68;9.05;;;15.00;99.90;;;;;;4984151;28;20055;-79
2022/05/18 04:35:10;;;;;;;14.67;8.70;;;15.10;99.90;;;;;;4983474;28;20055;-78
2022/05/18 04:37:37;;;;;;;15.55;9.68;;;15.20;99.90;;;;;;4962268;29;20287;-78
2022/05/18 04:40:04;;;;;;;16.73;9.07;;;15.30;99.90;;;;;;4960207;29;20043;-78
2022/05/18 04:42:30;;;;;;;16.58;9.98;;;15.40;99.90;;;;;;4958858;29;20070;-77
2022/05/18 04:44:56;;;;;;;23.08;10.38;;;15.50;99.90;;;;;;4958169;28;20051;-77
2022/05/18 04:47:23;;;;;;;18.20;10.75;;;15.60;99.90;;;;;;4958070;29;20496;-78
2022/05/18 04:49:50;;;;;;;18.38;9.43;;;15.70;99.90;;;;;;4956769;29;20174;-77
2022/05/18 04:52:20;;;;;;;19.48;10.07;;;15.80;99.90;;;;;;4971814;28;20051;-79
2022/05/18 04:54:47;;;;;;;18.48;10.23;;;15.90;99.90;;;;;;4955442;29;20070;-78
2022/05/18 04:57:13;;;;;;;18.40;10.32;;;15.90;99.90;;;;;;4955377;29;20055;-78
2022/05/18 04:59:39;;;;;;;19.52;9.82;;;15.90;99.90;;;;;;4956596;28;20047;-79
2022/05/18 05:02:05;;;;;;;21.27;10.77;;;16.10;99.90;;;;;;4955026;29;20421;-79
2022/05/18 05:04:32;;;;;;;19.80;10.80;;;16.10;99.90;;;;;;4956335;29;20051;-79
2022/05/18 05:06:58;;;;;;;;;;;16.20;99.90;;;;;;4956477;28;20082;-78
2022/05/18 05:09:24;;;;;;;20.87;10.87;;;16.20;99.90;;;;;;4939102;29;20009;-79
2022/05/18 05:11:54;;;;;;;21.65;10.25;;;16.30;99.90;;;;;;4955468;29;20059;-79
2022/05/18 05:14:20;;;;;;;25.10;11.25;;;16.30;99.90;;;;;;4955842;29;20105;-80
2022/05/18 05:16:47;;;;;;;23.55;10.70;;;16.40;99.90;;;;;;4956258;28;20055;-78
2022/05/18 05:19:14;;;;;;;21.70;11.38;;;16.40;99.90;;;;;;4956168;29;20106;-79
2022/05/18 05:21:42;;;;;;;21.02;10.75;;;16.50;99.90;;;;;;4940212;29;20345;-79
2022/05/18 05:24:14;;;;;;;19.63;11.23;;;16.60;99.90;;;;;;4971469;28;20051;-79
2022/05/18 05:26:41;;;;;;;23.05;12.02;;;16.60;99.90;;;;;;4956336;29;20051;-79
2022/05/18 05:29:08;;;;;;;19.90;10.98;;;16.70;99.90;;;;;;4954260;29;20043;-75
2022/05/18 05:31:35;;;;;;;19.15;11.23;;;16.80;99.90;;;;;;4955039;29;20090;-80
2022/05/18 05:34:01;;;;;;;22.10;12.02;;;16.80;99.90;;;;;;4956648;28;20051;-80
2022/05/18 05:36:27;;;;;;;17.77;11.20;;;16.80;99.90;;;;;;4956301;29;20510;-78
2022/05/18 05:38:53;;;;;;;19.85;12.15;;;16.90;99.90;;;;;;4957034;28;20107;-78
2022/05/18 05:41:22;;;;;;;20.17;11.33;;;17.00;99.90;;;;;;4954604;29;20055;-80
2022/05/18 05:43:50;;;;;;;21.73;11.50;;;17.10;99.90;;;;;;4953292;28;20082;-79
2022/05/18 05:46:19;;;;;;;19.13;11.68;;;17.10;99.90;;;;;;4955084;28;20047;-78
2022/05/18 05:48:46;;;;;;;23.83;12.30;;;17.20;99.90;;;;;;4954827;29;20472;-79
2022/05/18 05:51:13;;;;;;;19.35;11.65;;;17.30;99.90;;;;;;4955583;29;20051;-75
2022/05/18 05:53:41;;;;;;;21.58;12.25;;;17.30;99.90;;;;;;4970547;28;20051;-79
2022/05/18 05:56:08;;;;;;;22.10;12.45;;;17.30;99.90;;;;;;4956017;29;20138;-79
2022/05/18 05:58:36;;;;;;;23.50;12.32;;;17.40;99.90;;;;;;4955452;28;20428;-80
2022/05/18 06:01:04;;;;;;;21.77;13.15;;;17.50;99.90;;;;;;4970483;28;20341;-80
2022/05/18 06:03:31;;;;;;;20.48;11.88;;;17.50;99.90;;;;;;4958115;28;20077;-79
2022/05/18 06:06:02;;;;;;;25.13;11.75;;;17.60;99.90;;;;;;4955649;28;20047;-79
2022/05/18 06:08:32;;;;;;;20.17;11.00;;;17.70;99.90;;;;;;4955870;29;20127;-79
2022/05/18 06:10:59;;;;;;;23.73;12.07;;;17.80;99.90;;;;;;4955731;28;20055;-81
2022/05/18 06:13:26;;;;;;;25.20;11.30;;;17.80;99.90;;;;;;4955710;29;20046;-79
2022/05/18 06:15:52;;;;;;;;;;;17.90;99.90;;;;;;4956667;28;20047;-80
2022/05/18 06:18:18;;;;;;;20.40;11.25;;;18.30;99.90;;;;;;4941306;29;20213;-79
2022/05/18 06:20:46;;;;;;;24.40;11.30;;;18.00;99.90;;;;;;4955323;29;20117;-79
2022/05/18 06:23:11;;;;;;;20.25;11.57;;;18.10;99.90;;;;;;4954634;29;20090;-79
2022/05/18 06:25:37;;;;;;;22.67;12.60;;;18.20;99.90;;;;;;4939967;29;20051;-81
2022/05/18 06:28:05;;;;;;;19.30;11.45;;;18.70;99.90;;;;;;4940198;29;20464;-79
2022/05/18 06:30:31;;;;;;;19.70;11.80;;;19.20;99.90;;;;;;4954408;29;20138;-81
2022/05/18 06:32:57;;;;;;;18.85;11.32;;;18.40;99.90;;;;;;4956425;29;20047;-79
2022/05/18 06:35:23;;;;;;;18.30;11.23;;;18.60;99.90;;;;;;4954460;28;20074;-79
2022/05/18 06:37:49;;;;;;;24.53;11.43;;;18.70;99.90;;;;;;4955560;29;20484;-80
2022/05/18 06:40:17;;;;;;;19.42;11.25;;;18.80;99.90;;;;;;4955719;29;20373;-74
2022/05/18 06:42:44;;;;;;;18.83;11.20;;;19.00;99.90;;;;;;4956794;28;20040;-80
2022/05/18 06:45:10;;;;;;;;;;;19.10;99.90;;;;;;4957767;29;20051;-79
2022/05/18 06:47:36;;;;;;;16.67;10.45;;;19.20;99.90;;;;;;4954781;29;19955;-79
2022/05/18 06:50:04;;;;;;;23.92;11.30;;;19.40;99.90;;;;;;4956047;29;20094;-76
2022/05/18 06:52:30;;;;;;;19.13;10.77;;;19.40;99.90;;;;;;4956569;28;20047;-84
2022/05/18 06:54:56;;;;;;;19.03;11.13;;;19.50;99.90;;;;;;4955744;28;20114;-80
2022/05/18 06:57:21;;;;;;;18.83;10.60;;;19.60;99.90;;;;;;4957763;29;20058;-79
2022/05/18 06:59:47;;;;;;;20.07;10.40;;;19.70;99.90;;;;;;4974053;28;20047;-80
2022/05/18 07:02:13;;;;;;;18.03;10.47;;;19.80;99.90;;;;;;4960691;28;20369;-76
2022/05/18 07:04:39;;;;;;;18.10;10.70;;;19.90;99.90;;;;;;4957037;28;20050;-78
2022/05/18 07:07:04;;;;;;;17.17;10.30;;;20.00;99.90;;;;;;4961837;29;20050;-77
2022/05/18 07:09:30;;;;;;;18.73;10.97;;;20.10;99.90;;;;;;4960259;29;20085;-81
2022/05/18 07:12:00;;;;;;;16.33;9.50;;;20.20;99.90;;;;;;4958483;29;20062;-77
2022/05/18 07:14:28;;;;;;;16.42;9.68;;;20.40;99.90;;;;;;4940995;29;20097;-78
2022/05/18 07:16:55;;;;;;;18.15;10.18;;;20.60;99.90;;;;;;4957974;29;20063;-79
2022/05/18 07:19:22;;;;;;;18.08;10.25;;;;;;;;;;4957283;29;20154;-77
2022/05/18 07:21:48;;;;;;;17.52;9.65;;;20.90;99.90;;;;;;4956814;29;20114;-80
2022/05/18 07:24:14;;;;;;;18.13;9.47;;;21.10;99.90;;;;;;4925477;29;20039;-80
2022/05/18 07:26:41;;;;;;;18.33;10.17;;;21.20;99.90;;;;;;4958432;29;20479;-80
2022/05/18 07:29:08;;;;;;;16.73;9.73;;;21.40;99.90;;;;;;4957486;29;20467;-75
2022/05/18 07:34:21;;;;;;;21.90;9.25;;;21.50;99.90;;;;;;4957566;28;20397;-78
2022/05/18 07:36:51;;;;;;;16.25;9.27;;;21.70;99.90;;;;;;4957431;28;20055;-77
2022/05/18 07:39:17;;;;;;;18.02;9.15;;;21.90;99.90;;;;;;4956586;29;20051;-77
2022/05/18 07:41:45;;;;;;;18.35;9.80;;;22.00;99.90;;;;;;4956158;29;20142;-78
2022/05/18 07:44:11;;;;;;;18.25;9.02;;;22.10;99.90;;;;;;4973020;28;20138;-76
2022/05/18 07:46:37;;;;;;;15.30;9.57;;;22.30;99.90;;;;;;4957263;28;20472;-79
2022/05/18 07:49:04;;;;;;;16.02;9.32;;;22.40;99.90;;;;;;4956069;29;20053;-77
2022/05/18 07:51:32;;;;;;;18.02;9.23;;;22.50;99.90;;;;;;4957018;29;20468;-79
2022/05/18 07:53:59;;;;;;;15.82;8.85;;;22.70;99.90;;;;;;4942132;29;20131;-77
2022/05/18 07:56:25;;;;;;;12.32;8.23;;;22.80;99.90;;;;;;4958675;29;20165;-78
2022/05/18 07:58:51;;;;;;;15.23;8.40;;;22.90;99.90;;;;;;4955950;29;20051;-77
2022/05/18 08:01:17;;;;;;;13.90;7.35;;;23.00;99.90;;;;;;4971856;28;20050;-77
2022/05/18 08:03:44;;;;;;;13.13;7.90;;;23.10;99.90;;;;;;4956270;29;20513;-77
2022/05/18 08:06:10;;;;;;;;;;;23.20;99.90;;;;;;4957745;28;20057;-75
2022/05/18 08:08:35;;;;;;;;;;;23.30;99.90;;;;;;4956894;28;20363;-78
2022/05/18 08:16:31;;;;;;;15.23;7.18;;;23.50;99.90;;;;;;4944240;29;20059;-79
2022/05/18 08:18:57;;;;;;;13.68;7.57;;;23.70;99.90;;;;;;4960122;28;20039;-78
2022/05/18 08:21:24;;;;;;;14.32;7.78;;;23.80;99.90;;;;;;4959146;29;20047;-78
2022/05/18 08:23:51;;;;;;;;;;;23.80;99.90;;;;;;4959743;29;20058;-77
2022/05/18 08:26:17;;;;;;;11.13;6.03;;;23.90;99.90;;;;;;4943212;29;19923;-78
2022/05/18 08:28:42;;;;;;;10.07;5.80;;;24.00;99.90;;;;;;4959265;28;20486;-77
2022/05/18 08:31:08;;;;;;;12.87;6.40;;;24.00;99.90;;;;;;4958740;29;20341;-78
2022/05/18 08:33:35;;;;;;;12.80;6.40;;;24.10;99.90;;;;;;4958880;28;20278;-75
2022/05/18 08:36:04;;;;;;;16.13;6.53;;;24.10;99.90;;;;;;4941758;29;20287;-78
2022/05/18 08:38:29;;;;;;;10.35;5.80;;;24.20;99.90;;;;;;4958721;28;20078;-78
2022/05/18 08:41:07;;;;;;;8.87;5.13;;;24.30;99.90;;;;;;4940951;29;20058;-79
2022/05/18 08:43:36;;;;;;;12.63;7.13;;;24.50;99.90;;;;;;4940807;29;20073;-76
2022/05/18 08:46:29;;;;;;;11.50;6.63;;;24.40;99.90;;;;;;4971946;28;20049;-78
2022/05/18 08:49:22;;;;;;;13.35;6.57;;;24.60;99.90;;;;;;4957060;28;20123;-77
2022/05/18 08:52:03;;;;;;;15.18;8.45;;;24.60;99.90;;;;;;4955882;29;20126;-78
2022/05/18 08:54:38;;;;;;;13.57;7.97;;;24.70;99.90;;;;;;4957103;28;20047;-75
2022/05/18 08:57:19;;;;;;;13.80;7.50;;;24.70;99.90;;;;;;4957245;29;20102;-77
2022/05/18 08:59:48;;;;;;;12.77;7.78;;;24.70;99.90;;;;;;4956806;29;20468;-76
2022/05/18 09:02:21;;;;;;;16.42;7.47;;;24.80;99.90;;;;;;4959548;29;20047;-79
2022/05/18 09:04:56;;;;;;;11.10;6.78;;;24.90;99.90;;;;;;4940802;29;20054;-78
2022/05/18 09:07:27;;;;;;;14.68;7.55;;;24.90;99.90;;;;;;4959611;28;20051;-76
2022/05/18 09:10:14;;;;;;;14.88;7.38;;;25.00;99.90;;;;;;4958905;29;20164;-78
2022/05/18 09:12:45;;;;;;;12.40;7.35;;;25.10;99.90;;;;;;4959791;29;20374;-76
2022/05/18 09:15:18;;;;;;;12.13;6.90;;;25.20;99.90;;;;;;4962784;28;20066;-78
2022/05/18 09:18:01;;;;;;;16.27;7.70;;;25.30;99.90;;;;;;4966089;28;20114;-80
2022/05/18 09:20:49;;;;;;;11.63;7.60;;;25.30;99.90;;;;;;4964438;28;20432;-78
2022/05/18 09:23:33;;;;;;;11.18;5.70;;;25.20;99.90;;;;;;4966107;29;20085;-79
2022/05/18 09:26:02;;;;;;;12.10;5.93;;;25.30;99.90;;;;;;4967120;29;20039;-77
2022/05/18 09:28:58;;;;;;;10.18;5.32;;;25.30;99.90;;;;;;4967782;29;20043;-76
2022/05/18 09:32:07;;;;;;;13.35;7.22;;;25.40;99.90;;;;;;4966256;29;20063;-78
2022/05/18 09:34:48;;;;;;;12.13;6.55;;;25.50;99.90;;;;;;4981877;28;20055;-77
2022/05/18 09:37:33;;;;;;;14.40;8.10;;;25.50;99.90;;;;;;4965897;29;20058;-78
2022/05/18 09:40:17;;;;;;;14.50;8.30;;;25.50;99.90;;;;;;4961751;29;20172;-77
2022/05/18 09:42:51;;;;;;;12.93;6.95;;;25.50;99.90;;;;;;4965089;29;20058;-78
2022/05/18 09:45:20;;;;;;;13.02;7.85;;;25.60;99.90;;;;;;4963663;29;20058;-78
2022/05/18 09:47:57;;;;;;;14.57;7.68;;;25.70;99.90;;;;;;4962281;28;20047;-77
2022/05/18 09:50:23;;;;;;;14.82;8.80;;;25.70;99.90;;;;;;4962601;29;20062;-78
2022/05/18 09:52:51;;;;;;;14.15;7.63;;;25.80;99.90;;;;;;4961990;28;20054;-78
2022/05/18 09:55:21;;;;;;;16.17;7.78;;;25.80;99.90;;;;;;4961467;29;20047;-78
2022/05/18 09:58:05;;;;;;;20.00;8.93;;;25.90;99.90;;;;;;4962204;28;20195;-79
2022/05/18 10:00:34;;;;;;;15.70;9.40;;;26.00;99.90;;;;;;4960788;29;20043;-77
2022/05/18 10:09:15;;;;;;;23.45;8.18;;;26.30;99.90;;;;;;4962871;29;20050;-78
2022/05/18 10:11:42;;;;;;;16.52;8.70;;;26.40;99.90;;;;;;4962664;29;20051;-77
2022/05/18 10:14:17;;;;;;;12.80;9.00;;;26.40;98.30;;;;;;4960814;29;20464;-76
2022/05/18 10:17:01;;;;;;;17.92;10.63;;;26.30;99.70;;;;;;4962081;29;20232;-77
2022/05/18 10:19:48;;;;;;;18.88;9.52;;;26.20;99.30;;;;;;4960963;29;20369;-77
2022/05/18 10:22:24;;;;;;;18.17;9.82;;;26.50;99.90;;;;;;4958309;28;20105;-77
2022/05/18 10:25:08;;;;;;;;;;;26.60;98.50;;;;;;4956556;29;20051;-77
2022/05/18 10:27:46;;;;;;;15.95;9.70;;;26.80;99.20;;;;;;4957351;29;19980;-78
2022/05/18 10:30:19;;;;;;;15.15;9.10;;;26.70;97.80;;;;;;4961488;28;20091;-77
2022/05/18 10:33:03;;;;;;;16.40;9.35;;;26.70;98.10;;;;;;4964506;29;20054;-76
2022/05/18 10:35:35;;;;;;;18.75;9.50;;;26.70;98.40;;;;;;4962937;28;20416;-77
2022/05/18 10:38:03;;;;;;;15.05;9.38;;;26.60;96.40;;;;;;4962038;29;20082;-77
2022/05/18 10:40:29;;;;;;;19.20;12.27;;;26.60;97.30;;;;;;4958241;29;20428;-78
2022/05/18 10:43:33;;;;;;;19.90;10.70;;;26.60;97.30;;;;;;4958038;29;20051;-79
2022/05/18 10:46:19;;;;;;;19.55;11.27;;;26.80;96.70;;;;;;4936823;28;20153;-78
2022/05/18 10:49:00;;;;;;;18.48;9.88;;;26.90;96.40;;;;;;4954564;29;20094;-77
2022/05/18 10:51:39;;;;;;;19.73;11.98;;;26.80;96.90;;;;;;4955135;28;20111;-76
2022/05/18 10:54:29;;;;;;;21.45;12.05;;;26.80;96.50;;;;;;4954475;29;20058;-74
2022/05/18 10:57:15;;;;;;;20.65;12.23;;;26.90;96.30;;;;;;4937844;29;20043;-76
2022/05/18 11:00:11;;;;;;;20.15;12.70;;;27.00;96.00;;;;;;4969113;28;20144;-79
2022/05/18 11:02:40;;;;;;;21.40;12.95;;;26.90;93.90;;;;;;4954750;29;20055;-78
2022/05/18 11:05:17;;;;;;;24.92;13.57;;;26.70;93.70;;;;;;4954470;28;20047;-78
2022/05/18 11:07:44;;;;;;;22.98;14.13;;;26.70;94.60;;;;;;4953575;29;20051;-79
2022/05/18 11:10:11;;;;;;;24.23;13.45;;;26.70;94.90;;;;;;4953949;29;20051;-83
2022/05/18 11:13:00;;;;;;;;;;;26.80;95.00;;;;;;4953997;28;20089;-78
2022/05/18 11:15:43;;;;;;;28.17;16.50;;;26.90;95.00;;;;;;4953626;29;19945;-79
2022/05/18 11:18:35;;;;;;;26.38;15.65;;;26.80;95.80;;;;;;4970457;28;20043;-78
2022/05/18 11:21:28;;;;;;;22.63;13.80;;;26.70;95.70;;;;;;4956361;28;20051;-80
2022/05/18 11:24:00;;;;;;;27.30;16.60;;;26.90;95.60;;;;;;4955840;29;20094;-80
2022/05/18 11:26:50;;;;;;;31.42;19.33;;;26.80;95.80;;;;;;4954593;28;20488;-79
2022/05/18 11:29:35;;;;;;;30.48;18.38;;;26.80;95.40;;;;;;4953521;29;20047;-78
2022/05/18 11:32:13;;;;;;;28.70;17.95;;;26.90;95.60;;;;;;4953963;29;20493;-77
2022/05/18 11:35:07;;;;;;;28.40;18.40;;;26.90;95.70;;;;;;4954842;29;20590;-80
2022/05/18 11:37:32;;;;;;;22.73;15.50;;;27.10;95.70;;;;;;4955625;29;20049;-78
2022/05/18 11:40:14;;;;;;;24.83;16.35;;;27.30;95.50;;;;;;4956738;29;20618;-79
2022/05/18 11:43:33;;;;;;;28.55;17.50;;;27.50;94.60;;;;;;4957767;28;20391;-80
2022/05/18 11:46:22;;;;;;;29.42;16.73;;;27.50;94.30;;;;;;4957532;29;20057;-79
2022/05/18 11:49:10;;;;;;;22.67;15.57;;;27.70;93.40;;;;;;4960901;28;20043;-76
2022/05/18 11:52:03;;;;;;;23.55;14.77;;;28.10;93.70;;;;;;4958833;29;20051;-77
2022/05/18 11:54:44;;;;;;;22.85;12.90;;;28.40;93.30;;;;;;4960705;28;20055;-81
2022/05/18 11:57:38;;;;;;;24.67;15.70;;;28.50;92.00;;;;;;4958131;29;20330;-78
2022/05/18 12:00:32;;;;;;;26.98;17.35;;;28.50;91.60;;;;;;4956993;29;20518;-78
2022/05/18 12:03:24;;;;;;;33.83;18.70;;;28.20;91.00;;;;;;4957421;29;20196;-78
2022/05/18 12:06:01;;;;;;;28.27;15.02;;;28.00;91.00;;;;;;4957522;29;20051;-78
2022/05/18 12:08:53;;;;;;;24.50;13.85;;;28.30;90.70;;;;;;4958106;29;20040;-79
2022/05/18 12:11:37;;;;;;;20.58;13.55;;;28.30;90.80;;;;;;4956258;29;20051;-79
2022/05/18 12:14:27;;;;;;;26.63;14.38;;;28.50;90.70;;;;;;4959002;29;20567;-78
2022/05/18 12:17:14;;;;;;;24.65;14.90;;;28.60;90.10;;;;;;4959247;28;20409;-81
2022/05/18 12:19:52;;;;;;;25.23;15.65;;;29.10;89.10;;;;;;4957051;29;20049;-80
2022/05/18 12:22:29;;;;;;;23.35;14.27;;;28.60;86.20;;;;;;4957868;28;20138;-80
2022/05/18 12:24:55;;;;;;;26.85;15.50;;;29.30;87.20;;;;;;4956753;29;20070;-78
2022/05/18 12:27:24;;;;;;;28.05;17.48;;;29.00;86.50;;;;;;4958567;29;20055;-77
2022/05/18 12:29:52;;;;;;;31.10;18.00;;;28.90;87.90;;;;;;4957042;29;20089;-79
2022/05/18 12:32:19;;;;;;;30.15;18.40;;;28.90;87.50;;;;;;4958208;28;20075;-78
2022/05/18 12:34:56;;;;;;;27.38;15.95;;;28.70;87.50;;;;;;4956826;29;20065;-78
2022/05/18 12:37:31;;;;;;;25.25;17.27;;;28.80;88.40;;;;;;4958825;29;20055;-83
2022/05/18 12:40:06;;;;;;;30.00;18.17;;;29.00;86.90;;;;;;4973880;28;20039;-78
2022/05/18 12:42:39;;;;;;;34.83;19.70;;;28.90;87.20;;;;;;4958244;29;20044;-77
2022/05/18 12:45:29;;;;;;;30.90;20.60;;;28.90;88.20;;;;;;4956996;29;20106;-80
2022/05/18 12:48:29;;;;;;;32.38;20.05;;;28.60;89.00;;;;;;4958103;29;20059;-75
2022/05/18 12:51:06;;;;;;;34.33;21.98;;;28.70;88.10;;;;;;4950089;29;20139;-75
2022/05/18 12:53:52;;;;;;;30.27;19.95;;;28.60;89.10;;;;;;4955492;28;20467;-78
2022/05/18 12:56:26;;;;;;;30.70;18.27;;;29.20;87.80;;;;;;4957328;29;20059;-77
2022/05/18 12:58:58;;;;;;;32.47;20.75;;;29.10;89.10;;;;;;4972141;28;20051;-78
2022/05/18 13:01:28;;;;;;;35.03;21.45;;;29.20;87.60;;;;;;4955277;28;20139;-78
2022/05/18 13:04:05;;;;;;;30.45;20.38;;;29.20;88.80;;;;;;4955971;29;20047;-79
2022/05/18 13:06:31;;;;;;;32.75;21.52;;;29.10;87.90;;;;;;4971371;28;20055;-79
2022/05/18 13:09:18;;;;;;;32.22;20.80;;;29.10;88.50;;;;;;4956739;28;20054;-78
2022/05/18 13:11:43;;;;;;;28.45;19.42;;;28.90;88.50;;;;;;4957561;29;20047;-77
2022/05/18 13:14:34;;;;;;;29.52;18.80;;;28.70;88.80;;;;;;4956680;29;20074;-74
2022/05/18 13:17:03;;;;;;;30.80;18.80;;;28.60;89.70;;;;;;4956731;29;20161;-78